sensor_id;sensor_type;location;lat;lon;timestamp;P1;durP1;ratioP1;P2;durP2;ratioP2
6378;SDS011;3222;48.858;10.128;2022-07-10T00:00:04;3.60;;;1.83;;
6378;SDS011;3222;48.858;10.128;2022-07-10T00:02:37;2.00;;;1.90;;
6378;SDS011;3222;48.858;10.128;2022-07-10T00:05:04;3.07;;;1.97;;
6378;SDS011;3222;48.858;10.128;2022-07-10T00:07:30;2.07;;;1.87;;
6378;SDS011;3222;48.858;10.128;2022-07-10T00:09:56;2.17;;;2.07;;
6378;SDS011;3222;48.858;10.128;2022-07-10T00:12:22;2.27;;;2.07;;
6378;SDS011;3222;48.858;10.128;2022-07-10T00:14:48;1.83;;;1.73;;
6378;SDS011;3222;48.858;10.128;2022-07-10T00:17:13;1.90;;;1.70;;
6378;SDS011;3222;48.858;10.128;2022-07-10T00:19:39;2.17;;;2.07;;
6378;SDS011;3222;48.858;10.128;2022-07-10T00:22:05;1.90;;;1.80;;
6378;SDS011;3222;48.858;10.128;2022-07-10T00:24:31;1.93;;;1.83;;
6378;SDS011;3222;48.858;10.128;2022-07-10T00:26:57;1.97;;;1.77;;
6378;SDS011;3222;48.858;10.128;2022-07-10T00:29:23;2.20;;;2.10;;
6378;SDS011;3222;48.858;10.128;2022-07-10T00:31:48;2.40;;;2.20;;
6378;SDS011;3222;48.858;10.128;2022-07-10T00:34:14;2.47;;;2.27;;
6378;SDS011;3222;48.858;10.128;2022-07-10T00:36:40;3.93;;;1.93;;
6378;SDS011;3222;48.858;10.128;2022-07-10T00:39:05;2.30;;;2.10;;
6378;SDS011;3222;48.858;10.128;2022-07-10T00:41:31;2.23;;;2.07;;
6378;SDS011;3222;48.858;10.128;2022-07-10T00:44:00;2.10;;;2.00;;
6378;SDS011;3222;48.858;10.128;2022-07-10T00:46:27;2.43;;;2.33;;
6378;SDS011;3222;48.858;10.128;2022-07-10T00:48:54;2.10;;;2.00;;
6378;SDS011;3222;48.858;10.128;2022-07-10T00:51:22;2.07;;;1.90;;
6378;SDS011;3222;48.858;10.128;2022-07-10T00:53:50;2.20;;;2.00;;
6378;SDS011;3222;48.858;10.128;2022-07-10T00:56:18;2.50;;;2.40;;
6378;SDS011;3222;48.858;10.128;2022-07-10T00:58:48;2.23;;;2.03;;
6378;SDS011;3222;48.858;10.128;2022-07-10T01:01:14;2.20;;;2.10;;
6378;SDS011;3222;48.858;10.128;2022-07-10T01:03:40;2.43;;;2.30;;
6378;SDS011;3222;48.858;10.128;2022-07-10T01:06:06;2.70;;;2.50;;
6378;SDS011;3222;48.858;10.128;2022-07-10T01:08:32;2.40;;;2.30;;
6378;SDS011;3222;48.858;10.128;2022-07-10T01:10:59;2.43;;;2.33;;
6378;SDS011;3222;48.858;10.128;2022-07-10T01:13:25;2.60;;;2.40;;
6378;SDS011;3222;48.858;10.128;2022-07-10T01:15:51;2.37;;;2.27;;
6378;SDS011;3222;48.858;10.128;2022-07-10T01:18:18;2.67;;;2.47;;
6378;SDS011;3222;48.858;10.128;2022-07-10T01:20:44;3.53;;;2.60;;
6378;SDS011;3222;48.858;10.128;2022-07-10T01:23:09;2.57;;;2.37;;
6378;SDS011;3222;48.858;10.128;2022-07-10T01:25:35;2.47;;;2.27;;
6378;SDS011;3222;48.858;10.128;2022-07-10T01:28:01;2.70;;;2.50;;
6378;SDS011;3222;48.858;10.128;2022-07-10T01:30:26;4.80;;;2.20;;
6378;SDS011;3222;48.858;10.128;2022-07-10T01:32:52;2.77;;;2.57;;
6378;SDS011;3222;48.858;10.128;2022-07-10T01:35:18;2.80;;;2.60;;
6378;SDS011;3222;48.858;10.128;2022-07-10T01:37:44;3.00;;;2.70;;
6378;SDS011;3222;48.858;10.128;2022-07-10T01:40:10;2.80;;;2.60;;
6378;SDS011;3222;48.858;10.128;2022-07-10T01:42:37;3.17;;;2.93;;
6378;SDS011;3222;48.858;10.128;2022-07-10T01:45:04;2.97;;;2.77;;
6378;SDS011;3222;48.858;10.128;2022-07-10T01:47:31;3.03;;;2.83;;
6378;SDS011;3222;48.858;10.128;2022-07-10T01:49:57;3.80;;;3.20;;
6378;SDS011;3222;48.858;10.128;2022-07-10T01:52:23;2.87;;;2.67;;
6378;SDS011;3222;48.858;10.128;2022-07-10T01:54:49;3.87;;;3.00;;
6378;SDS011;3222;48.858;10.128;2022-07-10T01:57:14;4.97;;;3.00;;
6378;SDS011;3222;48.858;10.128;2022-07-10T01:59:40;3.80;;;3.00;;
6378;SDS011;3222;48.858;10.128;2022-07-10T02:02:06;3.03;;;2.83;;
6378;SDS011;3222;48.858;10.128;2022-07-10T02:04:32;4.63;;;3.17;;
6378;SDS011;3222;48.858;10.128;2022-07-10T02:07:11;3.67;;;3.20;;
6378;SDS011;3222;48.858;10.128;2022-07-10T02:09:40;5.23;;;3.20;;
6378;SDS011;3222;48.858;10.128;2022-07-10T02:12:06;3.07;;;2.83;;
6378;SDS011;3222;48.858;10.128;2022-07-10T02:14:34;3.47;;;3.17;;
6378;SDS011;3222;48.858;10.128;2022-07-10T02:17:00;4.00;;;3.13;;
6378;SDS011;3222;48.858;10.128;2022-07-10T02:19:26;3.23;;;3.03;;
6378;SDS011;3222;48.858;10.128;2022-07-10T02:21:52;3.47;;;3.17;;
6378;SDS011;3222;48.858;10.128;2022-07-10T02:24:18;3.67;;;3.30;;
6378;SDS011;3222;48.858;10.128;2022-07-10T02:26:43;3.57;;;3.20;;
6378;SDS011;3222;48.858;10.128;2022-07-10T02:29:09;3.27;;;3.07;;
6378;SDS011;3222;48.858;10.128;2022-07-10T02:31:35;3.60;;;3.30;;
6378;SDS011;3222;48.858;10.128;2022-07-10T02:34:05;5.37;;;3.47;;
6378;SDS011;3222;48.858;10.128;2022-07-10T02:36:35;3.33;;;3.03;;
6378;SDS011;3222;48.858;10.128;2022-07-10T02:39:02;3.27;;;2.97;;
6378;SDS011;3222;48.858;10.128;2022-07-10T02:41:28;3.77;;;3.47;;
6378;SDS011;3222;48.858;10.128;2022-07-10T02:43:54;4.77;;;3.63;;
6378;SDS011;3222;48.858;10.128;2022-07-10T02:46:19;10.10;;;4.90;;
6378;SDS011;3222;48.858;10.128;2022-07-10T02:48:45;5.13;;;3.60;;
6378;SDS011;3222;48.858;10.128;2022-07-10T02:51:11;3.90;;;3.50;;
6378;SDS011;3222;48.858;10.128;2022-07-10T02:53:36;3.73;;;3.50;;
6378;SDS011;3222;48.858;10.128;2022-07-10T02:56:02;3.63;;;3.33;;
6378;SDS011;3222;48.858;10.128;2022-07-10T02:58:28;3.57;;;3.27;;
6378;SDS011;3222;48.858;10.128;2022-07-10T03:00:53;4.07;;;3.57;;
6378;SDS011;3222;48.858;10.128;2022-07-10T03:03:19;3.70;;;3.40;;
6378;SDS011;3222;48.858;10.128;2022-07-10T03:05:45;3.70;;;3.40;;
6378;SDS011;3222;48.858;10.128;2022-07-10T03:08:11;3.70;;;3.40;;
6378;SDS011;3222;48.858;10.128;2022-07-10T03:10:37;3.77;;;3.47;;
6378;SDS011;3222;48.858;10.128;2022-07-10T03:13:03;3.63;;;3.33;;
6378;SDS011;3222;48.858;10.128;2022-07-10T03:15:29;4.27;;;3.90;;
6378;SDS011;3222;48.858;10.128;2022-07-10T03:17:55;3.90;;;3.60;;
6378;SDS011;3222;48.858;10.128;2022-07-10T03:20:21;3.80;;;3.40;;
6378;SDS011;3222;48.858;10.128;2022-07-10T03:22:47;4.33;;;3.93;;
6378;SDS011;3222;48.858;10.128;2022-07-10T03:25:12;4.20;;;3.80;;
6378;SDS011;3222;48.858;10.128;2022-07-10T03:27:39;3.77;;;3.47;;
6378;SDS011;3222;48.858;10.128;2022-07-10T03:30:05;3.80;;;3.40;;
6378;SDS011;3222;48.858;10.128;2022-07-10T03:32:31;5.07;;;3.83;;
6378;SDS011;3222;48.858;10.128;2022-07-10T03:34:57;4.57;;;3.80;;
6378;SDS011;3222;48.858;10.128;2022-07-10T03:37:23;3.70;;;3.40;;
6378;SDS011;3222;48.858;10.128;2022-07-10T03:39:49;4.23;;;3.60;;
6378;SDS011;3222;48.858;10.128;2022-07-10T03:42:15;5.57;;;3.50;;
6378;SDS011;3222;48.858;10.128;2022-07-10T03:44:41;3.83;;;3.43;;
6378;SDS011;3222;48.858;10.128;2022-07-10T03:47:06;4.90;;;3.57;;
6378;SDS011;3222;48.858;10.128;2022-07-10T03:49:32;4.20;;;3.80;;
6378;SDS011;3222;48.858;10.128;2022-07-10T03:51:58;5.63;;;3.20;;
6378;SDS011;3222;48.858;10.128;2022-07-10T03:54:26;4.27;;;3.43;;
6378;SDS011;3222;48.858;10.128;2022-07-10T03:56:52;4.23;;;3.27;;
6378;SDS011;3222;48.858;10.128;2022-07-10T03:59:36;3.57;;;3.27;;
6378;SDS011;3222;48.858;10.128;2022-07-10T04:02:02;4.80;;;3.90;;
6378;SDS011;3222;48.858;10.128;2022-07-10T04:04:28;3.70;;;3.40;;
6378;SDS011;3222;48.858;10.128;2022-07-10T04:06:53;4.07;;;3.63;;
6378;SDS011;3222;48.858;10.128;2022-07-10T04:09:19;4.03;;;3.63;;
6378;SDS011;3222;48.858;10.128;2022-07-10T04:11:45;4.00;;;3.70;;
6378;SDS011;3222;48.858;10.128;2022-07-10T04:14:10;3.67;;;3.37;;
6378;SDS011;3222;48.858;10.128;2022-07-10T04:16:36;6.47;;;3.60;;
6378;SDS011;3222;48.858;10.128;2022-07-10T04:19:02;3.63;;;3.33;;
6378;SDS011;3222;48.858;10.128;2022-07-10T04:21:27;6.13;;;3.43;;
6378;SDS011;3222;48.858;10.128;2022-07-10T04:23:53;4.17;;;3.70;;
6378;SDS011;3222;48.858;10.128;2022-07-10T04:26:19;3.00;;;2.80;;
6378;SDS011;3222;48.858;10.128;2022-07-10T04:28:45;3.40;;;3.10;;
6378;SDS011;3222;48.858;10.128;2022-07-10T04:31:10;3.30;;;3.00;;
6378;SDS011;3222;48.858;10.128;2022-07-10T04:33:36;3.83;;;3.47;;
6378;SDS011;3222;48.858;10.128;2022-07-10T04:36:02;3.33;;;3.10;;
6378;SDS011;3222;48.858;10.128;2022-07-10T04:38:28;4.07;;;3.50;;
6378;SDS011;3222;48.858;10.128;2022-07-10T04:40:53;4.67;;;3.50;;
6378;SDS011;3222;48.858;10.128;2022-07-10T04:43:20;4.50;;;3.60;;
6378;SDS011;3222;48.858;10.128;2022-07-10T04:45:46;4.67;;;3.10;;
6378;SDS011;3222;48.858;10.128;2022-07-10T04:48:11;3.73;;;3.13;;
6378;SDS011;3222;48.858;10.128;2022-07-10T04:50:37;2.80;;;2.60;;
6378;SDS011;3222;48.858;10.128;2022-07-10T04:53:03;4.97;;;3.03;;
6378;SDS011;3222;48.858;10.128;2022-07-10T04:55:29;4.20;;;3.40;;
6378;SDS011;3222;48.858;10.128;2022-07-10T04:57:54;2.97;;;2.60;;
6378;SDS011;3222;48.858;10.128;2022-07-10T05:00:20;3.13;;;2.83;;
6378;SDS011;3222;48.858;10.128;2022-07-10T05:02:46;3.97;;;2.97;;
6378;SDS011;3222;48.858;10.128;2022-07-10T05:05:11;3.97;;;3.07;;
6378;SDS011;3222;48.858;10.128;2022-07-10T05:07:37;3.97;;;2.90;;
6378;SDS011;3222;48.858;10.128;2022-07-10T05:10:03;3.93;;;3.27;;
6378;SDS011;3222;48.858;10.128;2022-07-10T05:12:29;3.30;;;3.10;;
6378;SDS011;3222;48.858;10.128;2022-07-10T05:14:55;3.40;;;2.73;;
6378;SDS011;3222;48.858;10.128;2022-07-10T05:17:22;3.00;;;2.77;;
6378;SDS011;3222;48.858;10.128;2022-07-10T05:19:48;3.50;;;3.00;;
6378;SDS011;3222;48.858;10.128;2022-07-10T05:22:16;3.10;;;2.80;;
6378;SDS011;3222;48.858;10.128;2022-07-10T05:24:42;2.97;;;2.77;;
6378;SDS011;3222;48.858;10.128;2022-07-10T05:27:08;3.10;;;2.73;;
6378;SDS011;3222;48.858;10.128;2022-07-10T05:29:33;3.20;;;2.80;;
6378;SDS011;3222;48.858;10.128;2022-07-10T05:31:59;8.17;;;2.97;;
6378;SDS011;3222;48.858;10.128;2022-07-10T05:34:25;3.53;;;2.63;;
6378;SDS011;3222;48.858;10.128;2022-07-10T05:36:51;2.83;;;2.63;;
6378;SDS011;3222;48.858;10.128;2022-07-10T05:39:17;3.87;;;2.63;;
6378;SDS011;3222;48.858;10.128;2022-07-10T05:41:43;2.50;;;2.30;;
6378;SDS011;3222;48.858;10.128;2022-07-10T05:44:08;2.67;;;2.17;;
6378;SDS011;3222;48.858;10.128;2022-07-10T05:46:34;3.27;;;2.23;;
6378;SDS011;3222;48.858;10.128;2022-07-10T05:49:00;2.37;;;2.13;;
6378;SDS011;3222;48.858;10.128;2022-07-10T05:51:26;2.60;;;2.40;;
6378;SDS011;3222;48.858;10.128;2022-07-10T05:53:52;2.67;;;2.47;;
6378;SDS011;3222;48.858;10.128;2022-07-10T05:56:17;7.50;;;2.70;;
6378;SDS011;3222;48.858;10.128;2022-07-10T05:58:43;2.73;;;2.40;;
6378;SDS011;3222;48.858;10.128;2022-07-10T06:01:09;2.30;;;2.20;;
6378;SDS011;3222;48.858;10.128;2022-07-10T06:03:35;3.00;;;2.67;;
6378;SDS011;3222;48.858;10.128;2022-07-10T06:06:00;5.57;;;4.17;;
6378;SDS011;3222;48.858;10.128;2022-07-10T06:08:26;3.77;;;2.23;;
6378;SDS011;3222;48.858;10.128;2022-07-10T06:10:52;3.67;;;2.20;;
6378;SDS011;3222;48.858;10.128;2022-07-10T06:13:18;2.33;;;2.10;;
6378;SDS011;3222;48.858;10.128;2022-07-10T06:15:44;2.10;;;2.00;;
6378;SDS011;3222;48.858;10.128;2022-07-10T06:18:09;2.47;;;1.90;;
6378;SDS011;3222;48.858;10.128;2022-07-10T06:20:35;3.50;;;2.50;;
6378;SDS011;3222;48.858;10.128;2022-07-10T06:23:01;2.87;;;2.00;;
6378;SDS011;3222;48.858;10.128;2022-07-10T06:25:27;1.90;;;1.80;;
6378;SDS011;3222;48.858;10.128;2022-07-10T06:27:52;1.97;;;1.80;;
6378;SDS011;3222;48.858;10.128;2022-07-10T06:30:18;2.20;;;2.00;;
6378;SDS011;3222;48.858;10.128;2022-07-10T06:32:44;2.97;;;2.00;;
6378;SDS011;3222;48.858;10.128;2022-07-10T06:35:10;4.93;;;1.90;;
6378;SDS011;3222;48.858;10.128;2022-07-10T06:37:35;1.90;;;1.80;;
6378;SDS011;3222;48.858;10.128;2022-07-10T06:40:02;3.10;;;1.87;;
6378;SDS011;3222;48.858;10.128;2022-07-10T06:42:29;2.77;;;1.70;;
6378;SDS011;3222;48.858;10.128;2022-07-10T06:44:58;1.80;;;1.63;;
6378;SDS011;3222;48.858;10.128;2022-07-10T06:47:23;2.93;;;1.60;;
6378;SDS011;3222;48.858;10.128;2022-07-10T06:50:08;4.10;;;1.83;;
6378;SDS011;3222;48.858;10.128;2022-07-10T06:52:35;3.10;;;1.60;;
6378;SDS011;3222;48.858;10.128;2022-07-10T06:55:01;1.50;;;1.40;;
6378;SDS011;3222;48.858;10.128;2022-07-10T06:57:28;3.40;;;1.50;;
6378;SDS011;3222;48.858;10.128;2022-07-10T06:59:55;2.63;;;1.50;;
6378;SDS011;3222;48.858;10.128;2022-07-10T07:02:21;1.60;;;1.30;;
6378;SDS011;3222;48.858;10.128;2022-07-10T07:04:46;1.87;;;1.67;;
6378;SDS011;3222;48.858;10.128;2022-07-10T07:07:12;2.80;;;1.60;;
6378;SDS011;3222;48.858;10.128;2022-07-10T07:09:39;3.77;;;1.43;;
6378;SDS011;3222;48.858;10.128;2022-07-10T07:12:06;1.77;;;1.30;;
6378;SDS011;3222;48.858;10.128;2022-07-10T07:14:32;2.10;;;1.50;;
6378;SDS011;3222;48.858;10.128;2022-07-10T07:16:58;1.30;;;1.20;;
6378;SDS011;3222;48.858;10.128;2022-07-10T07:19:35;2.27;;;1.30;;
6378;SDS011;3222;48.858;10.128;2022-07-10T07:22:21;1.47;;;1.37;;
6378;SDS011;3222;48.858;10.128;2022-07-10T07:25:07;1.77;;;1.30;;
6378;SDS011;3222;48.858;10.128;2022-07-10T07:27:34;2.60;;;1.90;;
6378;SDS011;3222;48.858;10.128;2022-07-10T07:30:03;6.23;;;1.53;;
6378;SDS011;3222;48.858;10.128;2022-07-10T07:32:31;3.60;;;1.00;;
6378;SDS011;3222;48.858;10.128;2022-07-10T07:34:57;3.53;;;1.40;;
6378;SDS011;3222;48.858;10.128;2022-07-10T07:37:34;3.23;;;2.40;;
6378;SDS011;3222;48.858;10.128;2022-07-10T07:40:01;1.37;;;0.93;;
6378;SDS011;3222;48.858;10.128;2022-07-10T07:42:27;1.63;;;1.53;;
6378;SDS011;3222;48.858;10.128;2022-07-10T07:44:52;2.07;;;1.07;;
6378;SDS011;3222;48.858;10.128;2022-07-10T07:47:18;1.77;;;1.00;;
6378;SDS011;3222;48.858;10.128;2022-07-10T07:49:44;1.20;;;1.10;;
6378;SDS011;3222;48.858;10.128;2022-07-10T07:52:10;1.23;;;0.90;;
6378;SDS011;3222;48.858;10.128;2022-07-10T07:54:36;1.33;;;0.93;;
6378;SDS011;3222;48.858;10.128;2022-07-10T07:57:01;2.13;;;1.07;;
6378;SDS011;3222;48.858;10.128;2022-07-10T07:59:27;1.63;;;1.10;;
6378;SDS011;3222;48.858;10.128;2022-07-10T08:01:53;2.60;;;1.20;;
6378;SDS011;3222;48.858;10.128;2022-07-10T08:04:18;1.67;;;1.00;;
6378;SDS011;3222;48.858;10.128;2022-07-10T08:06:44;1.77;;;1.20;;
6378;SDS011;3222;48.858;10.128;2022-07-10T08:09:10;2.83;;;1.13;;
6378;SDS011;3222;48.858;10.128;2022-07-10T08:11:35;2.00;;;1.10;;
6378;SDS011;3222;48.858;10.128;2022-07-10T08:14:01;1.80;;;1.00;;
6378;SDS011;3222;48.858;10.128;2022-07-10T08:16:27;1.53;;;1.00;;
6378;SDS011;3222;48.858;10.128;2022-07-10T08:18:52;2.43;;;1.13;;
6378;SDS011;3222;48.858;10.128;2022-07-10T08:21:18;1.93;;;1.13;;
6378;SDS011;3222;48.858;10.128;2022-07-10T08:23:44;2.37;;;1.20;;
6378;SDS011;3222;48.858;10.128;2022-07-10T08:26:09;1.23;;;1.13;;
6378;SDS011;3222;48.858;10.128;2022-07-10T08:28:35;0.83;;;0.83;;
6378;SDS011;3222;48.858;10.128;2022-07-10T08:31:01;1.23;;;1.00;;
6378;SDS011;3222;48.858;10.128;2022-07-10T08:33:27;1.87;;;1.13;;
6378;SDS011;3222;48.858;10.128;2022-07-10T08:35:53;1.43;;;1.10;;
6378;SDS011;3222;48.858;10.128;2022-07-10T08:38:23;4.17;;;1.10;;
6378;SDS011;3222;48.858;10.128;2022-07-10T08:40:50;1.43;;;1.10;;
6378;SDS011;3222;48.858;10.128;2022-07-10T08:43:18;1.63;;;1.27;;
6378;SDS011;3222;48.858;10.128;2022-07-10T08:45:44;3.97;;;1.33;;
6378;SDS011;3222;48.858;10.128;2022-07-10T08:48:14;1.90;;;1.00;;
6378;SDS011;3222;48.858;10.128;2022-07-10T08:50:44;2.03;;;1.10;;
6378;SDS011;3222;48.858;10.128;2022-07-10T08:53:12;2.73;;;1.00;;
6378;SDS011;3222;48.858;10.128;2022-07-10T08:55:41;0.80;;;0.80;;
6378;SDS011;3222;48.858;10.128;2022-07-10T08:58:08;1.13;;;1.00;;
6378;SDS011;3222;48.858;10.128;2022-07-10T09:00:35;2.10;;;1.10;;
6378;SDS011;3222;48.858;10.128;2022-07-10T09:03:00;1.30;;;1.10;;
6378;SDS011;3222;48.858;10.128;2022-07-10T09:05:26;3.53;;;1.20;;
6378;SDS011;3222;48.858;10.128;2022-07-10T09:07:53;1.20;;;1.10;;
6378;SDS011;3222;48.858;10.128;2022-07-10T09:10:19;1.93;;;1.20;;
6378;SDS011;3222;48.858;10.128;2022-07-10T09:12:51;1.50;;;1.03;;
6378;SDS011;3222;48.858;10.128;2022-07-10T09:15:19;2.50;;;1.17;;
6378;SDS011;3222;48.858;10.128;2022-07-10T09:17:50;1.83;;;1.10;;
6378;SDS011;3222;48.858;10.128;2022-07-10T09:23:17;1.47;;;1.10;;
6378;SDS011;3222;48.858;10.128;2022-07-10T09:25:44;4.10;;;1.43;;
6378;SDS011;3222;48.858;10.128;2022-07-10T09:28:12;2.33;;;1.13;;
6378;SDS011;3222;48.858;10.128;2022-07-10T09:30:40;1.43;;;1.07;;
6378;SDS011;3222;48.858;10.128;2022-07-10T09:33:16;2.93;;;1.27;;
6378;SDS011;3222;48.858;10.128;2022-07-10T09:41:14;5.60;;;1.20;;
6378;SDS011;3222;48.858;10.128;2022-07-10T09:43:44;1.10;;;1.00;;
6378;SDS011;3222;48.858;10.128;2022-07-10T09:46:15;1.30;;;1.20;;
6378;SDS011;3222;48.858;10.128;2022-07-10T09:48:41;2.33;;;1.00;;
6378;SDS011;3222;48.858;10.128;2022-07-10T09:51:08;2.13;;;1.40;;
6378;SDS011;3222;48.858;10.128;2022-07-10T09:53:42;1.63;;;1.00;;
6378;SDS011;3222;48.858;10.128;2022-07-10T09:56:10;0.97;;;0.90;;
6378;SDS011;3222;48.858;10.128;2022-07-10T09:58:37;1.30;;;1.20;;
6378;SDS011;3222;48.858;10.128;2022-07-10T10:01:04;1.73;;;1.13;;
6378;SDS011;3222;48.858;10.128;2022-07-10T10:03:35;1.20;;;1.07;;
6378;SDS011;3222;48.858;10.128;2022-07-10T10:06:15;2.73;;;2.13;;
6378;SDS011;3222;48.858;10.128;2022-07-10T10:11:33;1.47;;;1.37;;
6378;SDS011;3222;48.858;10.128;2022-07-10T10:14:02;2.33;;;1.10;;
6378;SDS011;3222;48.858;10.128;2022-07-10T10:16:28;1.73;;;1.10;;
6378;SDS011;3222;48.858;10.128;2022-07-10T10:18:55;2.43;;;0.90;;
6378;SDS011;3222;48.858;10.128;2022-07-10T10:21:40;1.17;;;1.07;;
6378;SDS011;3222;48.858;10.128;2022-07-10T10:24:06;2.47;;;1.10;;
6378;SDS011;3222;48.858;10.128;2022-07-10T10:26:33;1.87;;;1.03;;
6378;SDS011;3222;48.858;10.128;2022-07-10T10:28:59;1.17;;;1.10;;
6378;SDS011;3222;48.858;10.128;2022-07-10T10:31:27;1.33;;;1.10;;
6378;SDS011;3222;48.858;10.128;2022-07-10T10:33:55;1.27;;;1.00;;
6378;SDS011;3222;48.858;10.128;2022-07-10T10:49:48;2.87;;;1.10;;
6378;SDS011;3222;48.858;10.128;2022-07-10T10:52:19;1.33;;;1.07;;
6378;SDS011;3222;48.858;10.128;2022-07-10T10:57:21;1.70;;;0.90;;
6378;SDS011;3222;48.858;10.128;2022-07-10T10:59:52;0.80;;;0.80;;
6378;SDS011;3222;48.858;10.128;2022-07-10T11:05:38;2.37;;;1.03;;
6378;SDS011;3222;48.858;10.128;2022-07-10T11:07:51;2.93;;;0.90;;
6378;SDS011;3222;48.858;10.128;2022-07-10T11:13:11;1.43;;;0.90;;
6378;SDS011;3222;48.858;10.128;2022-07-10T11:15:39;2.50;;;1.10;;
6378;SDS011;3222;48.858;10.128;2022-07-10T11:20:53;0.90;;;0.90;;
6378;SDS011;3222;48.858;10.128;2022-07-10T11:23:35;1.33;;;1.10;;
6378;SDS011;3222;48.858;10.128;2022-07-10T11:26:36;1.13;;;0.80;;
6378;SDS011;3222;48.858;10.128;2022-07-10T11:29:19;2.67;;;0.97;;
6378;SDS011;3222;48.858;10.128;2022-07-10T11:31:54;0.83;;;0.80;;
6378;SDS011;3222;48.858;10.128;2022-07-10T11:34:23;2.33;;;1.00;;
6378;SDS011;3222;48.858;10.128;2022-07-10T11:36:59;1.63;;;0.90;;
6378;SDS011;3222;48.858;10.128;2022-07-10T11:39:25;1.03;;;1.03;;
6378;SDS011;3222;48.858;10.128;2022-07-10T11:41:50;0.80;;;0.80;;
6378;SDS011;3222;48.858;10.128;2022-07-10T11:44:18;2.20;;;1.10;;
6378;SDS011;3222;48.858;10.128;2022-07-10T11:46:45;1.00;;;1.00;;
6378;SDS011;3222;48.858;10.128;2022-07-10T11:49:14;1.10;;;0.97;;
6378;SDS011;3222;48.858;10.128;2022-07-10T11:51:40;3.57;;;1.07;;
6378;SDS011;3222;48.858;10.128;2022-07-10T11:54:08;1.10;;;0.93;;
6378;SDS011;3222;48.858;10.128;2022-07-10T11:56:41;0.97;;;0.90;;
6378;SDS011;3222;48.858;10.128;2022-07-10T11:59:12;1.40;;;1.07;;
6378;SDS011;3222;48.858;10.128;2022-07-10T12:01:43;1.50;;;0.80;;
6378;SDS011;3222;48.858;10.128;2022-07-10T12:04:14;3.03;;;0.97;;
6378;SDS011;3222;48.858;10.128;2022-07-10T12:06:45;3.70;;;1.10;;
6378;SDS011;3222;48.858;10.128;2022-07-10T12:09:16;1.60;;;0.83;;
6378;SDS011;3222;48.858;10.128;2022-07-10T12:11:43;0.80;;;0.80;;
6378;SDS011;3222;48.858;10.128;2022-07-10T12:14:22;1.13;;;1.13;;
6378;SDS011;3222;48.858;10.128;2022-07-10T12:16:49;2.13;;;1.00;;
6378;SDS011;3222;48.858;10.128;2022-07-10T12:19:17;0.90;;;0.90;;
6378;SDS011;3222;48.858;10.128;2022-07-10T12:21:45;2.20;;;1.07;;
6378;SDS011;3222;48.858;10.128;2022-07-10T12:24:12;1.10;;;1.00;;
6378;SDS011;3222;48.858;10.128;2022-07-10T12:26:40;1.87;;;0.90;;
6378;SDS011;3222;48.858;10.128;2022-07-10T12:29:11;3.37;;;0.90;;
6378;SDS011;3222;48.858;10.128;2022-07-10T12:31:44;1.30;;;0.90;;
6378;SDS011;3222;48.858;10.128;2022-07-10T12:34:11;1.90;;;1.00;;
6378;SDS011;3222;48.858;10.128;2022-07-10T12:36:40;1.50;;;0.83;;
6378;SDS011;3222;48.858;10.128;2022-07-10T12:39:18;0.70;;;0.70;;
6378;SDS011;3222;48.858;10.128;2022-07-10T12:41:58;1.33;;;0.90;;
6378;SDS011;3222;48.858;10.128;2022-07-10T12:47:16;0.70;;;0.70;;
6378;SDS011;3222;48.858;10.128;2022-07-10T12:55:07;1.13;;;0.87;;
6378;SDS011;3222;48.858;10.128;2022-07-10T13:00:26;2.90;;;0.90;;
6378;SDS011;3222;48.858;10.128;2022-07-10T13:05:27;0.70;;;0.70;;
6378;SDS011;3222;48.858;10.128;2022-07-10T13:08:07;1.63;;;0.67;;
6378;SDS011;3222;48.858;10.128;2022-07-10T13:10:50;2.10;;;0.80;;
6378;SDS011;3222;48.858;10.128;2022-07-10T13:13:17;1.03;;;0.80;;
6378;SDS011;3222;48.858;10.128;2022-07-10T13:15:44;1.27;;;1.10;;
6378;SDS011;3222;48.858;10.128;2022-07-10T13:18:18;2.43;;;0.87;;
6378;SDS011;3222;48.858;10.128;2022-07-10T13:20:46;0.70;;;0.70;;
6378;SDS011;3222;48.858;10.128;2022-07-10T13:23:14;0.80;;;0.80;;
6378;SDS011;3222;48.858;10.128;2022-07-10T13:25:41;0.70;;;0.70;;
6378;SDS011;3222;48.858;10.128;2022-07-10T13:28:07;1.60;;;0.80;;
6378;SDS011;3222;48.858;10.128;2022-07-10T13:30:35;0.90;;;0.63;;
6378;SDS011;3222;48.858;10.128;2022-07-10T13:33:01;1.47;;;0.80;;
6378;SDS011;3222;48.858;10.128;2022-07-10T13:35:28;0.87;;;0.80;;
6378;SDS011;3222;48.858;10.128;2022-07-10T13:37:55;0.60;;;0.60;;
6378;SDS011;3222;48.858;10.128;2022-07-10T13:40:25;1.30;;;0.77;;
6378;SDS011;3222;48.858;10.128;2022-07-10T13:42:51;1.27;;;0.87;;
6378;SDS011;3222;48.858;10.128;2022-07-10T13:45:18;0.77;;;0.77;;
6378;SDS011;3222;48.858;10.128;2022-07-10T13:47:44;0.80;;;0.80;;
6378;SDS011;3222;48.858;10.128;2022-07-10T13:50:10;0.87;;;0.80;;
6378;SDS011;3222;48.858;10.128;2022-07-10T13:52:36;0.80;;;0.60;;
6378;SDS011;3222;48.858;10.128;2022-07-10T13:55:01;1.03;;;0.70;;
6378;SDS011;3222;48.858;10.128;2022-07-10T13:57:29;0.70;;;0.70;;
6378;SDS011;3222;48.858;10.128;2022-07-10T13:59:55;0.83;;;0.80;;
6378;SDS011;3222;48.858;10.128;2022-07-10T14:02:21;0.70;;;0.70;;
6378;SDS011;3222;48.858;10.128;2022-07-10T14:04:47;2.30;;;0.90;;
6378;SDS011;3222;48.858;10.128;2022-07-10T14:07:13;2.40;;;0.73;;
6378;SDS011;3222;48.858;10.128;2022-07-10T14:09:39;3.60;;;0.90;;
6378;SDS011;3222;48.858;10.128;2022-07-10T14:12:05;0.83;;;0.83;;
6378;SDS011;3222;48.858;10.128;2022-07-10T14:14:31;1.40;;;0.87;;
6378;SDS011;3222;48.858;10.128;2022-07-10T14:16:57;3.87;;;0.90;;
6378;SDS011;3222;48.858;10.128;2022-07-10T14:19:22;1.93;;;1.00;;
6378;SDS011;3222;48.858;10.128;2022-07-10T14:21:48;1.47;;;0.83;;
6378;SDS011;3222;48.858;10.128;2022-07-10T14:24:14;0.97;;;0.90;;
6378;SDS011;3222;48.858;10.128;2022-07-10T14:26:40;1.27;;;0.70;;
6378;SDS011;3222;48.858;10.128;2022-07-10T14:29:05;1.83;;;1.03;;
6378;SDS011;3222;48.858;10.128;2022-07-10T14:31:32;3.20;;;0.90;;
6378;SDS011;3222;48.858;10.128;2022-07-10T14:33:58;1.53;;;0.93;;
6378;SDS011;3222;48.858;10.128;2022-07-10T14:36:24;1.47;;;0.80;;
6378;SDS011;3222;48.858;10.128;2022-07-10T14:38:53;0.70;;;0.70;;
6378;SDS011;3222;48.858;10.128;2022-07-10T14:41:20;1.10;;;0.90;;
6378;SDS011;3222;48.858;10.128;2022-07-10T14:43:46;1.07;;;0.90;;
6378;SDS011;3222;48.858;10.128;2022-07-10T14:46:11;1.20;;;0.80;;
6378;SDS011;3222;48.858;10.128;2022-07-10T14:48:37;1.40;;;0.90;;
6378;SDS011;3222;48.858;10.128;2022-07-10T14:51:03;1.63;;;0.80;;
6378;SDS011;3222;48.858;10.128;2022-07-10T14:53:29;1.50;;;0.93;;
6378;SDS011;3222;48.858;10.128;2022-07-10T14:55:59;1.57;;;0.70;;
6378;SDS011;3222;48.858;10.128;2022-07-10T14:58:25;1.03;;;0.87;;
6378;SDS011;3222;48.858;10.128;2022-07-10T15:00:51;0.70;;;0.70;;
6378;SDS011;3222;48.858;10.128;2022-07-10T15:03:17;1.07;;;0.93;;
6378;SDS011;3222;48.858;10.128;2022-07-10T15:05:42;0.70;;;0.70;;
6378;SDS011;3222;48.858;10.128;2022-07-10T15:08:08;0.90;;;0.90;;
6378;SDS011;3222;48.858;10.128;2022-07-10T15:10:34;1.17;;;0.80;;
6378;SDS011;3222;48.858;10.128;2022-07-10T15:12:59;1.97;;;1.10;;
6378;SDS011;3222;48.858;10.128;2022-07-10T15:15:29;1.27;;;1.00;;
6378;SDS011;3222;48.858;10.128;2022-07-10T15:17:55;2.27;;;1.00;;
6378;SDS011;3222;48.858;10.128;2022-07-10T15:20:21;2.27;;;0.90;;
6378;SDS011;3222;48.858;10.128;2022-07-10T15:22:47;2.43;;;0.80;;
6378;SDS011;3222;48.858;10.128;2022-07-10T15:25:12;3.00;;;0.70;;
6378;SDS011;3222;48.858;10.128;2022-07-10T15:27:38;2.00;;;0.70;;
6378;SDS011;3222;48.858;10.128;2022-07-10T15:30:04;2.10;;;0.73;;
6378;SDS011;3222;48.858;10.128;2022-07-10T15:32:31;0.77;;;0.50;;
6378;SDS011;3222;48.858;10.128;2022-07-10T15:34:56;0.50;;;0.50;;
6378;SDS011;3222;48.858;10.128;2022-07-10T15:37:22;0.50;;;0.50;;
6378;SDS011;3222;48.858;10.128;2022-07-10T15:39:48;1.60;;;0.60;;
6378;SDS011;3222;48.858;10.128;2022-07-10T15:42:14;1.00;;;0.60;;
6378;SDS011;3222;48.858;10.128;2022-07-10T15:44:40;1.30;;;0.80;;
6378;SDS011;3222;48.858;10.128;2022-07-10T15:47:06;1.80;;;0.77;;
6378;SDS011;3222;48.858;10.128;2022-07-10T15:49:32;3.90;;;0.97;;